createdAt,value
2022-10-17T00:00:46.918Z,76.82
2022-10-17T00:02:49.501Z,77.24
2022-10-17T00:04:53.451Z,77.14
2022-10-17T00:06:56.038Z,76.88
2022-10-17T00:08:58.630Z,77.04
2022-10-17T00:11:02.896Z,76.63
2022-10-17T00:13:05.653Z,76.87
2022-10-17T00:15:09.533Z,77.43
2022-10-17T00:17:12.126Z,77.63
2022-10-17T00:19:14.689Z,77.91
2022-10-17T00:21:20.522Z,77.86
2022-10-17T00:23:23.184Z,77.28
2022-10-17T00:25:25.772Z,77.25
2022-10-17T00:27:28.694Z,77.25
2022-10-17T00:29:31.641Z,76.68
2022-10-17T00:31:35.636Z,76.19
2022-10-17T00:33:39.198Z,76.08
2022-10-17T00:35:41.809Z,76.06
2022-10-17T00:37:45.682Z,76.46
2022-10-17T00:39:48.244Z,75.71
2022-10-17T00:41:50.986Z,76.13
2022-10-17T00:43:56.809Z,75.70
2022-10-17T00:45:59.479Z,75.49
2022-10-17T00:48:06.188Z,75.86
2022-10-17T00:50:09.548Z,75.92
2022-10-17T00:52:16.519Z,75.47
2022-10-17T00:54:23.429Z,75.17
2022-10-17T00:56:26.120Z,74.50
2022-10-17T00:58:28.942Z,74.63
2022-10-17T01:00:32.115Z,74.47
2022-10-17T01:02:34.773Z,73.78
2022-10-17T01:04:37.923Z,74.68
2022-10-17T01:06:40.501Z,75.06
2022-10-17T01:08:43.132Z,76.01
2022-10-17T01:10:58.785Z,76.44
2022-10-17T01:13:12.529Z,75.87
2022-10-17T01:15:24.776Z,75.48
2022-10-17T01:17:36.828Z,75.43
2022-10-17T01:20:00.372Z,76.08
2022-10-17T01:22:10.626Z,76.31
2022-10-17T01:24:43.072Z,75.84
2022-10-17T01:27:00.223Z,75.39
2022-10-17T01:29:30.412Z,74.47
2022-10-17T01:31:39.510Z,75.00
2022-10-17T01:33:52.669Z,75.57
2022-10-17T01:36:03.384Z,75.12
2022-10-17T01:38:12.541Z,74.88
2022-10-17T01:40:21.280Z,74.80
2022-10-17T01:42:28.301Z,74.38
2022-10-17T01:44:37.928Z,74.31
2022-10-17T01:46:46.405Z,73.67
2022-10-17T01:48:49.058Z,73.42
2022-10-17T01:50:54.629Z,73.01
2022-10-17T01:53:03.613Z,73.75
2022-10-17T01:55:11.116Z,72.92
2022-10-17T01:57:21.443Z,73.57
2022-10-17T01:59:28.142Z,75.04
2022-10-17T02:01:32.446Z,75.37
2022-10-17T02:03:36.872Z,75.42
2022-10-17T02:05:42.430Z,76.79
2022-10-17T02:07:45.065Z,76.39
2022-10-17T02:09:47.673Z,76.15
2022-10-17T02:12:13.099Z,76.16
2022-10-17T02:14:30.719Z,76.04
2022-10-17T02:16:39.748Z,75.83
2022-10-17T02:19:08.698Z,76.35
2022-10-17T02:21:17.699Z,76.17
2022-10-17T02:23:28.615Z,75.70
2022-10-17T02:25:38.789Z,75.23
2022-10-17T02:27:49.395Z,75.19
2022-10-17T02:29:58.339Z,74.78
2022-10-17T02:32:04.955Z,75.40
2022-10-17T02:34:13.114Z,75.43
2022-10-17T02:36:20.973Z,74.90
2022-10-17T02:38:25.289Z,74.39
2022-10-17T02:40:31.154Z,74.09
2022-10-17T02:42:34.904Z,74.22
2022-10-17T02:44:40.155Z,74.45
2022-10-17T02:46:46.260Z,75.05
2022-10-17T02:48:51.657Z,75.31
2022-10-17T02:51:03.113Z,75.27
2022-10-17T02:53:12.657Z,75.06
2022-10-17T02:55:18.780Z,75.13
2022-10-17T02:57:28.360Z,74.62
2022-10-17T03:01:40.575Z,73.56
2022-10-17T03:03:43.225Z,73.71
2022-10-17T03:05:45.804Z,73.60
2022-10-17T03:07:49.926Z,73.17
2022-10-17T03:09:52.461Z,73.19
2022-10-17T03:11:55.323Z,73.23
2022-10-17T03:13:57.898Z,73.51
2022-10-17T03:16:00.506Z,73.36
2022-10-17T03:18:03.116Z,73.46
2022-10-17T03:20:06.871Z,74.30
2022-10-17T03:22:09.559Z,73.33
2022-10-17T03:24:13.649Z,74.02
2022-10-17T03:26:16.529Z,74.74
2022-10-17T03:28:19.125Z,74.60
2022-10-17T03:30:21.983Z,74.39
2022-10-17T03:32:24.551Z,74.02
2022-10-17T03:34:27.143Z,75.34
2022-10-17T03:36:29.796Z,75.23
2022-10-17T03:38:32.350Z,75.14
2022-10-17T03:40:36.529Z,75.72
2022-10-17T03:42:39.151Z,75.29
2022-10-17T03:44:41.900Z,73.58
2022-10-17T03:46:44.576Z,75.06
2022-10-17T03:48:47.186Z,75.94
2022-10-17T03:50:50.032Z,76.28
2022-10-17T03:52:52.868Z,76.34
2022-10-17T03:54:55.406Z,76.36
2022-10-17T03:56:59.321Z,75.78
2022-10-17T03:59:01.881Z,75.77
2022-10-17T04:01:05.597Z,76.05
2022-10-17T04:03:08.257Z,76.37
2022-10-17T04:05:10.787Z,76.05
2022-10-17T04:07:13.419Z,75.86
2022-10-17T04:09:16.274Z,75.51
2022-10-17T04:11:20.939Z,75.75
2022-10-17T04:13:24.931Z,75.90
2022-10-17T04:15:27.651Z,75.92
2022-10-17T04:17:35.894Z,76.12
2022-10-17T04:19:40.897Z,75.55
2022-10-17T04:21:45.080Z,75.06
2022-10-17T04:23:47.711Z,74.85
2022-10-17T04:25:50.325Z,74.61
2022-10-17T04:27:52.914Z,75.11
2022-10-17T04:29:56.833Z,75.72
2022-10-17T04:31:59.392Z,76.08
2022-10-17T04:34:01.937Z,76.48
2022-10-17T04:36:07.202Z,77.33
2022-10-17T04:38:09.765Z,76.98
2022-10-17T04:40:12.739Z,75.67
2022-10-17T04:42:15.290Z,75.48
2022-10-17T04:44:18.071Z,75.39
2022-10-17T04:46:22.007Z,75.16
2022-10-17T04:48:24.580Z,75.12
2022-10-17T04:50:27.208Z,75.32
2022-10-17T04:52:30.070Z,74.74
2022-10-17T04:54:32.901Z,74.12
2022-10-17T04:56:35.605Z,74.40
2022-10-17T04:58:38.921Z,74.54
2022-10-17T05:00:41.866Z,74.54
2022-10-17T05:02:45.876Z,74.47
2022-10-17T05:04:48.457Z,74.21
2022-10-17T05:06:50.992Z,74.09
2022-10-17T05:08:53.556Z,74.16
2022-10-17T05:10:56.335Z,74.24
2022-10-17T05:12:58.924Z,73.98
2022-10-17T05:15:01.488Z,73.67
2022-10-17T05:19:25.569Z,74.37
2022-10-17T05:23:38.681Z,75.14
2022-10-17T05:25:41.343Z,75.03
2022-10-17T05:27:43.938Z,73.62
2022-10-17T05:29:46.622Z,74.00
2022-10-17T05:31:49.235Z,73.77
2022-10-17T05:33:51.814Z,74.78
2022-10-17T05:35:55.792Z,74.83
2022-10-17T05:38:00.009Z,75.06
2022-10-17T05:40:02.734Z,75.33
2022-10-17T05:42:05.452Z,75.18
2022-10-17T05:44:08.069Z,75.51
2022-10-17T05:46:10.967Z,75.63
2022-10-17T05:48:13.531Z,75.40
2022-10-17T05:50:16.254Z,75.09
2022-10-17T05:52:20.271Z,75.48
2022-10-17T05:54:22.832Z,75.75
2022-10-17T05:56:25.373Z,75.86
2022-10-17T06:00:51.603Z,76.42
2022-10-17T06:02:54.164Z,76.81
2022-10-17T06:04:56.715Z,77.22
2022-10-17T06:06:59.303Z,77.97
2022-10-17T06:09:03.255Z,77.36
2022-10-17T06:11:09.203Z,77.44
2022-10-17T06:13:12.976Z,77.16
2022-10-17T06:15:15.548Z,77.11
2022-10-17T06:17:18.221Z,76.74
2022-10-17T06:19:20.882Z,76.55
2022-10-17T06:21:25.380Z,76.60
2022-10-17T06:23:28.510Z,76.76
2022-10-17T06:25:33.808Z,76.92
2022-10-17T06:27:36.444Z,77.27
2022-10-17T06:29:39.097Z,76.74
2022-10-17T06:31:41.653Z,76.47
2022-10-17T06:33:44.519Z,76.57
2022-10-17T06:35:52.223Z,76.39
2022-10-17T06:37:54.830Z,76.82
2022-10-17T06:39:57.423Z,77.46
2022-10-17T06:42:01.901Z,77.66
2022-10-17T06:44:10.827Z,77.56
2022-10-17T06:46:14.561Z,77.41
2022-10-17T06:48:17.151Z,78.09
2022-10-17T06:50:19.748Z,78.46
2022-10-17T06:52:22.462Z,78.53
2022-10-17T06:54:25.168Z,78.74
2022-10-17T06:56:27.769Z,79.08
2022-10-17T06:58:33.408Z,78.50
2022-10-17T07:00:36.082Z,78.19
2022-10-17T07:02:38.731Z,78.55
2022-10-17T07:04:41.323Z,77.76
2022-10-17T07:06:43.909Z,76.78
2022-10-17T07:08:47.140Z,76.79
2022-10-17T07:10:51.187Z,77.43
2022-10-17T07:12:53.854Z,77.83
2022-10-17T07:14:57.719Z,76.95
2022-10-17T07:17:00.499Z,76.93
2022-10-17T07:19:03.079Z,77.75
2022-10-17T07:21:06.048Z,76.66
2022-10-17T07:23:08.662Z,76.99
2022-10-17T07:25:11.223Z,77.15
2022-10-17T07:27:13.927Z,77.50
2022-10-17T07:29:16.520Z,77.94
2022-10-17T07:31:22.347Z,78.06
2022-10-17T07:33:24.999Z,78.89
2022-10-17T07:35:27.840Z,77.82
2022-10-17T07:37:30.760Z,78.22
2022-10-17T07:39:35.580Z,77.95
2022-10-17T07:41:38.203Z,78.29
2022-10-17T07:43:42.831Z,78.34
2022-10-17T07:45:45.393Z,76.88
2022-10-17T07:47:49.368Z,77.16
2022-10-17T07:49:51.952Z,77.02
2022-10-17T07:51:54.562Z,77.91
2022-10-17T07:53:57.107Z,76.87
2022-10-17T07:55:59.712Z,77.65
2022-10-17T07:58:02.261Z,78.39
2022-10-17T08:00:05.617Z,77.34
2022-10-17T08:02:08.477Z,76.92
2022-10-17T08:04:12.438Z,76.75
2022-10-17T08:06:15.650Z,76.64
2022-10-17T08:08:18.201Z,76.09
2022-10-17T08:10:21.395Z,76.15
2022-10-17T08:12:25.878Z,76.38
2022-10-17T08:14:28.470Z,76.68
2022-10-17T08:16:31.047Z,77.10
2022-10-17T08:18:33.653Z,77.27
2022-10-17T08:20:37.918Z,76.81
2022-10-17T08:22:40.476Z,76.88
2022-10-17T08:24:44.455Z,77.21
2022-10-17T08:26:49.577Z,76.95
2022-10-17T08:28:54.342Z,77.02
2022-10-17T08:31:03.527Z,76.67
2022-10-17T08:33:06.233Z,76.88
2022-10-17T08:35:09.579Z,77.07
2022-10-17T08:37:13.935Z,76.59
2022-10-17T08:39:16.501Z,76.45
2022-10-17T08:41:34.878Z,75.69
2022-10-17T08:43:47.831Z,75.08
2022-10-17T08:45:55.720Z,74.95
2022-10-17T08:48:00.733Z,74.02
2022-10-17T08:50:05.131Z,74.43
2022-10-17T08:52:16.551Z,74.77
2022-10-17T08:54:23.599Z,75.24
2022-10-17T08:56:44.429Z,75.58
2022-10-17T08:58:50.757Z,75.77
2022-10-17T09:01:03.107Z,75.97
2022-10-17T09:03:21.220Z,76.18
2022-10-17T09:05:36.862Z,76.27
2022-10-17T09:07:51.023Z,76.52
2022-10-17T09:10:03.191Z,76.81
2022-10-17T09:12:21.814Z,76.38
2022-10-17T09:14:59.730Z,75.74
2022-10-17T09:17:13.583Z,75.66
2022-10-17T09:19:22.317Z,75.65
2022-10-17T09:21:31.571Z,74.86
2022-10-17T09:23:48.186Z,73.47
2022-10-17T09:25:54.892Z,73.29
2022-10-17T09:28:07.311Z,73.26
2022-10-17T09:30:46.366Z,73.32
2022-10-17T09:32:49.340Z,73.15
2022-10-17T09:34:53.025Z,73.56
2022-10-17T09:36:56.809Z,74.12
2022-10-17T09:39:03.263Z,74.43
2022-10-17T09:41:39.324Z,74.85
2022-10-17T09:43:38.340Z,73.70
2022-10-17T09:45:46.955Z,73.02
2022-10-17T09:47:59.612Z,72.87
2022-10-17T09:50:04.634Z,73.11
2022-10-17T09:52:13.345Z,73.20
2022-10-17T09:54:23.745Z,73.52
2022-10-17T09:56:26.327Z,73.90
2022-10-17T09:58:41.694Z,74.34
2022-10-17T10:00:47.374Z,74.88
2022-10-17T10:02:49.984Z,74.74
2022-10-17T10:05:06.862Z,75.27
2022-10-17T10:07:14.072Z,73.84
2022-10-17T10:09:25.638Z,72.92
2022-10-17T10:11:46.803Z,72.83
2022-10-17T10:13:50.207Z,72.70
2022-10-17T10:15:52.895Z,72.41
2022-10-17T10:17:55.501Z,72.15
2022-10-17T10:19:58.064Z,71.84
2022-10-17T10:22:02.710Z,71.31
2022-10-17T10:24:12.281Z,71.54
2022-10-17T10:26:28.417Z,71.02
2022-10-17T10:28:33.014Z,71.62
2022-10-17T10:30:39.058Z,72.49
2022-10-17T10:32:48.529Z,73.18
2022-10-17T10:34:54.209Z,73.36
2022-10-17T10:37:02.070Z,73.59
2022-10-17T10:39:05.404Z,73.84
2022-10-17T10:41:11.074Z,73.87
2022-10-17T10:43:24.399Z,73.68
2022-10-17T10:45:46.983Z,73.52
2022-10-17T10:47:52.900Z,73.76
2022-10-17T10:50:18.401Z,73.39
2022-10-17T10:52:43.033Z,73.33
2022-10-17T10:54:55.177Z,72.87
2022-10-17T10:57:00.997Z,72.85
2022-10-17T10:59:11.548Z,73.12
2022-10-17T11:01:23.475Z,72.96
2022-10-17T11:03:32.398Z,72.97
2022-10-17T11:05:42.758Z,72.52
2022-10-17T11:07:52.337Z,72.46
2022-10-17T11:09:59.755Z,72.36
2022-10-17T11:12:08.933Z,73.02
2022-10-17T11:14:19.340Z,73.30
2022-10-17T11:16:32.633Z,73.18
2022-10-17T11:18:43.775Z,72.95
2022-10-17T11:20:53.982Z,73.33
2022-10-17T11:23:02.535Z,73.16
2022-10-17T11:25:16.122Z,72.40
2022-10-17T11:27:18.737Z,72.11
2022-10-17T11:29:25.955Z,71.59
2022-10-17T11:31:32.439Z,71.25
2022-10-17T11:33:43.665Z,70.92
2022-10-17T11:35:50.086Z,69.49
2022-10-17T11:37:59.231Z,68.67
2022-10-17T11:40:07.278Z,68.12
2022-10-17T11:42:15.530Z,68.36
2022-10-17T11:44:26.181Z,68.51
2022-10-17T11:46:29.571Z,68.57
2022-10-17T11:48:40.448Z,68.25
2022-10-17T11:53:15.637Z,69.26
2022-10-17T11:55:22.692Z,70.13
2022-10-17T11:57:45.859Z,70.47
2022-10-17T12:00:04.003Z,70.29
2022-10-17T12:02:12.971Z,70.54
2022-10-17T12:04:29.899Z,70.11
2022-10-17T12:06:45.169Z,69.65
2022-10-17T12:08:54.985Z,65.30
2022-10-17T12:11:02.264Z,65.70
2022-10-17T12:13:41.717Z,65.58
2022-10-17T12:15:46.735Z,62.41
2022-10-17T12:17:56.492Z,62.35
2022-10-17T12:20:28.549Z,59.87
2022-10-17T12:22:30.972Z,60.36
2022-10-17T12:24:41.311Z,60.07
2022-10-17T12:26:46.627Z,60.04
2022-10-17T12:28:49.429Z,59.60
2022-10-17T12:30:56.810Z,59.56
2022-10-17T12:33:06.531Z,58.12
2022-10-17T12:35:21.766Z,55.71
2022-10-17T12:38:01.199Z,57.08
2022-10-17T12:40:04.088Z,55.52
2022-10-17T12:42:31.288Z,55.07
2022-10-17T12:44:38.668Z,53.82
2022-10-17T12:46:52.281Z,54.64
2022-10-17T12:49:04.603Z,54.41
2022-10-17T12:51:34.170Z,52.37
2022-10-17T12:53:41.906Z,53.40
2022-10-17T12:55:44.470Z,52.89
2022-10-17T12:57:58.349Z,51.16
2022-10-17T13:00:04.897Z,49.99
2022-10-17T13:02:18.280Z,49.91
2022-10-17T13:04:22.169Z,49.24
2022-10-17T13:06:27.940Z,49.02
2022-10-17T13:08:32.769Z,49.77
2022-10-17T13:12:41.356Z,48.33
2022-10-17T13:14:47.020Z,48.06
2022-10-17T13:16:55.046Z,48.17
2022-10-17T13:18:59.353Z,48.40
2022-10-17T13:21:04.621Z,48.24
2022-10-17T13:23:07.449Z,47.41
2022-10-17T13:25:16.385Z,47.15
2022-10-17T13:27:30.009Z,48.01
2022-10-17T13:29:33.260Z,48.20
2022-10-17T13:31:37.697Z,47.55
2022-10-17T13:33:42.281Z,47.71
2022-10-17T13:35:59.941Z,47.43
2022-10-17T13:38:07.468Z,46.67
2022-10-17T13:40:40.233Z,45.97
2022-10-17T13:42:42.308Z,46.96
2022-10-17T13:44:45.106Z,47.11
2022-10-17T13:46:48.072Z,46.49
2022-10-17T13:48:50.792Z,45.31
2022-10-17T13:50:59.109Z,45.30
2022-10-17T13:53:25.470Z,44.13
2022-10-17T13:55:28.181Z,44.86
2022-10-17T13:57:32.771Z,44.73
2022-10-17T13:59:40.541Z,44.68
2022-10-17T14:01:43.581Z,43.63
2022-10-17T14:03:49.796Z,44.62
2022-10-17T14:06:12.620Z,44.59
2022-10-17T14:08:22.765Z,45.13
2022-10-17T14:10:27.703Z,44.47
2022-10-17T14:12:30.352Z,45.33
2022-10-17T14:14:51.635Z,45.30
2022-10-17T14:16:56.500Z,43.90
2022-10-17T14:18:59.128Z,43.72
2022-10-17T14:23:35.304Z,43.61
2022-10-17T14:25:38.706Z,43.30
2022-10-17T14:27:58.089Z,43.13
2022-10-17T14:30:06.926Z,43.42
2022-10-17T14:32:14.767Z,43.67
2022-10-17T14:34:23.006Z,43.14
2022-10-17T14:36:38.512Z,43.52
2022-10-17T14:38:46.511Z,44.50
2022-10-17T14:40:52.210Z,44.76
2022-10-17T14:42:56.717Z,44.64
2022-10-17T14:45:09.000Z,44.34
2022-10-17T14:47:42.269Z,45.12
2022-10-17T14:49:42.806Z,45.32
2022-10-17T14:52:19.168Z,44.92
2022-10-17T14:54:26.809Z,44.90
2022-10-17T14:56:37.393Z,44.81
2022-10-17T14:58:40.076Z,44.98
2022-10-17T15:00:42.640Z,45.89
2022-10-17T15:02:46.193Z,47.33
2022-10-17T15:04:48.831Z,47.99
2022-10-17T15:06:55.779Z,47.32
2022-10-17T15:08:58.843Z,46.99
2022-10-17T15:11:02.815Z,47.13
2022-10-17T15:15:28.783Z,47.72
2022-10-17T15:17:32.371Z,48.08
2022-10-17T15:19:35.041Z,47.90
2022-10-17T15:21:40.815Z,48.74
2022-10-17T15:23:47.356Z,50.96
2022-10-17T15:25:50.047Z,52.73
2022-10-17T15:27:54.647Z,51.97
2022-10-17T15:29:57.253Z,51.34
2022-10-17T15:31:59.847Z,51.65
2022-10-17T15:34:02.492Z,53.43
2022-10-17T15:36:05.409Z,54.44
2022-10-17T15:38:08.470Z,54.09
2022-10-17T15:40:15.773Z,54.67
2022-10-17T15:42:18.346Z,54.89
2022-10-17T15:44:22.421Z,55.98
2022-10-17T15:46:27.268Z,55.41
2022-10-17T15:48:32.628Z,55.78
2022-10-17T15:50:35.224Z,56.14
2022-10-17T15:52:37.803Z,56.01
2022-10-17T15:54:40.744Z,56.63
2022-10-17T15:56:44.421Z,56.73
2022-10-17T15:58:47.393Z,57.31
2022-10-17T16:00:51.697Z,58.96
2022-10-17T16:02:54.448Z,59.76
2022-10-17T16:04:58.530Z,60.90
2022-10-17T16:07:01.137Z,61.09
2022-10-17T16:09:03.712Z,61.23
2022-10-17T16:11:06.565Z,61.19
2022-10-17T16:13:18.312Z,60.79
2022-10-17T16:15:22.723Z,61.02
2022-10-17T16:17:26.831Z,60.59
2022-10-17T16:19:30.038Z,60.37
2022-10-17T16:21:34.777Z,60.47
2022-10-17T16:23:37.693Z,60.76
2022-10-17T16:25:40.780Z,61.31
2022-10-17T16:27:43.549Z,61.71
2022-10-17T16:29:46.112Z,62.22
2022-10-17T16:31:48.685Z,62.84
2022-10-17T16:33:56.825Z,62.87
2022-10-17T16:35:59.442Z,62.39
2022-10-17T16:38:02.010Z,62.18
2022-10-17T16:40:05.323Z,62.28
2022-10-17T16:42:07.979Z,62.30
2022-10-17T16:44:14.491Z,62.64
2022-10-17T16:46:17.525Z,62.31
2022-10-17T16:48:20.192Z,61.51
2022-10-17T16:50:24.420Z,61.14
2022-10-17T16:52:27.237Z,61.06
2022-10-17T16:54:30.161Z,61.14
2022-10-17T16:56:32.967Z,61.40
2022-10-17T16:58:35.628Z,62.05
2022-10-17T17:00:39.895Z,62.27
2022-10-17T17:02:42.512Z,62.57
2022-10-17T17:04:45.194Z,62.74
2022-10-17T17:06:49.343Z,62.84
2022-10-17T17:08:52.242Z,64.32
2022-10-17T17:10:55.519Z,64.25
2022-10-17T17:12:58.470Z,64.96
2022-10-17T17:15:01.145Z,65.00
2022-10-17T17:17:03.720Z,64.72
2022-10-17T17:19:08.404Z,64.10
2022-10-17T17:21:11.790Z,64.09
2022-10-17T17:23:16.088Z,64.85
2022-10-17T17:25:18.736Z,64.96
2022-10-17T17:27:21.553Z,64.64
2022-10-17T17:29:25.606Z,64.38
2022-10-17T17:31:30.913Z,64.76
2022-10-17T17:33:33.775Z,64.87
2022-10-17T17:35:39.823Z,65.09
2022-10-17T17:37:42.814Z,65.59
2022-10-17T17:39:46.762Z,65.55
2022-10-17T17:41:49.321Z,65.25
2022-10-17T17:43:52.327Z,65.80
2022-10-17T17:45:54.923Z,65.42
2022-10-17T17:47:57.805Z,65.81
2022-10-17T17:50:00.462Z,65.51
2022-10-17T17:54:11.430Z,66.12
2022-10-17T17:56:17.185Z,66.05
2022-10-17T17:58:19.751Z,66.15
2022-10-17T18:00:22.364Z,66.28
2022-10-17T18:02:24.999Z,66.41
2022-10-17T18:04:28.145Z,66.72
2022-10-17T18:06:30.760Z,66.55
2022-10-17T18:08:33.656Z,66.83
2022-10-17T18:10:36.284Z,67.04
2022-10-17T18:12:40.263Z,67.01
2022-10-17T18:14:42.850Z,66.71
2022-10-17T18:16:45.486Z,66.96
2022-10-17T18:18:48.367Z,66.61
2022-10-17T18:20:50.937Z,66.55
2022-10-17T18:22:53.493Z,66.71
2022-10-17T18:24:56.052Z,67.02
2022-10-17T18:26:59.832Z,67.43
2022-10-17T18:29:04.543Z,67.63
2022-10-17T18:31:08.194Z,67.35
2022-10-17T18:33:10.749Z,67.83
2022-10-17T18:35:13.442Z,67.93
2022-10-17T18:37:16.496Z,66.97
2022-10-17T18:39:19.187Z,67.02
2022-10-17T18:41:24.099Z,67.02
2022-10-17T18:43:26.679Z,67.58
2022-10-17T18:45:30.604Z,67.83
2022-10-17T18:47:33.236Z,68.02
2022-10-17T18:49:36.407Z,67.81
2022-10-17T18:51:39.616Z,67.60
2022-10-17T18:53:43.141Z,67.43
2022-10-17T18:57:50.023Z,68.08
2022-10-17T18:59:52.601Z,68.42
2022-10-17T19:01:56.694Z,68.17
2022-10-17T19:04:00.279Z,68.22
2022-10-17T19:06:03.795Z,68.27
2022-10-17T19:08:06.984Z,67.81
2022-10-17T19:10:10.218Z,67.76
2022-10-17T19:12:12.789Z,67.66
2022-10-17T19:14:15.438Z,68.06
2022-10-17T19:16:19.963Z,68.14
2022-10-17T19:18:23.922Z,68.54
2022-10-17T19:20:26.644Z,68.23
2022-10-17T19:22:31.197Z,68.19
2022-10-17T19:24:33.820Z,68.17
2022-10-17T19:26:37.614Z,68.00
2022-10-17T19:28:42.118Z,67.87
2022-10-17T19:30:44.846Z,67.87
2022-10-17T19:32:48.380Z,67.02
2022-10-17T19:34:52.261Z,66.55
2022-10-17T19:36:55.690Z,65.25
2022-10-17T19:38:58.704Z,65.01
2022-10-17T19:41:01.489Z,65.13
2022-10-17T19:43:04.389Z,64.60
2022-10-17T19:45:08.554Z,64.73
2022-10-17T19:47:11.112Z,64.40
2022-10-17T19:49:14.078Z,64.40
2022-10-17T19:51:20.002Z,64.64
2022-10-17T19:53:24.411Z,64.64
2022-10-17T19:55:26.981Z,64.84
2022-10-17T19:57:29.505Z,65.20
2022-10-17T19:59:32.082Z,64.42
2022-10-17T20:01:36.061Z,64.85
2022-10-17T20:03:38.820Z,65.37
2022-10-17T20:05:41.425Z,65.75
2022-10-17T20:07:48.349Z,65.98
2022-10-17T20:09:51.085Z,66.10
2022-10-17T20:11:53.640Z,66.11
2022-10-17T20:13:57.103Z,66.18
2022-10-17T20:15:59.958Z,65.93
2022-10-17T20:18:02.908Z,65.13
2022-10-17T20:20:08.742Z,65.65
2022-10-17T20:22:11.638Z,65.94
2022-10-17T20:24:17.457Z,66.19
2022-10-17T20:26:37.540Z,65.94
2022-10-17T20:28:41.944Z,66.13
2022-10-17T20:30:46.503Z,66.23
2022-10-17T20:32:49.175Z,66.19
2022-10-17T20:34:51.874Z,66.30
2022-10-17T20:36:54.481Z,66.17
2022-10-17T20:38:58.676Z,66.34
2022-10-17T20:41:03.677Z,66.76
2022-10-17T20:43:08.445Z,66.56
2022-10-17T20:45:12.176Z,66.59
2022-10-17T20:47:26.492Z,66.63
2022-10-17T20:49:35.517Z,67.13
2022-10-17T20:51:38.364Z,67.28
2022-10-17T20:53:40.929Z,67.50
2022-10-17T20:55:43.670Z,67.39
2022-10-17T20:57:47.719Z,67.56
2022-10-17T20:59:50.498Z,67.45
2022-10-17T21:01:54.848Z,67.36
2022-10-17T21:04:06.169Z,67.26
2022-10-17T21:06:19.604Z,67.43
2022-10-17T21:08:22.319Z,67.64
2022-10-17T21:10:34.948Z,67.68
2022-10-17T21:12:53.096Z,67.75
2022-10-17T21:14:58.107Z,67.86
2022-10-17T21:17:04.763Z,67.78
2022-10-17T21:19:08.065Z,67.95
2022-10-17T21:21:13.494Z,68.00
2022-10-17T21:23:16.090Z,68.37
2022-10-17T21:25:19.331Z,68.17
2022-10-17T21:27:21.924Z,68.24
2022-10-17T21:29:25.038Z,68.62
2022-10-17T21:31:29.024Z,68.96
2022-10-17T21:33:34.351Z,69.04
2022-10-17T21:35:36.937Z,69.17
2022-10-17T21:37:39.531Z,69.20
2022-10-17T21:39:42.112Z,69.27
2022-10-17T21:41:45.638Z,69.20
2022-10-17T21:43:49.218Z,69.58
2022-10-17T21:45:51.802Z,69.44
2022-10-17T21:48:12.351Z,69.27
2022-10-17T21:50:15.429Z,69.47
2022-10-17T21:52:18.009Z,69.10
2022-10-17T21:54:22.845Z,68.43
2022-10-17T21:56:28.649Z,68.97
2022-10-17T21:58:31.926Z,69.58
2022-10-17T22:00:34.537Z,69.47
2022-10-17T22:02:37.145Z,69.65
2022-10-17T22:04:41.091Z,69.87
2022-10-17T22:06:45.792Z,70.03
2022-10-17T22:08:48.960Z,70.41
2022-10-17T22:10:51.532Z,70.58
2022-10-17T22:12:54.081Z,69.73
2022-10-17T22:14:56.634Z,69.24
2022-10-17T22:16:59.244Z,70.20
2022-10-17T22:19:06.184Z,70.87
2022-10-17T22:21:13.351Z,70.65
2022-10-17T22:23:15.928Z,70.78
2022-10-17T22:25:18.560Z,71.18
2022-10-17T22:27:21.108Z,71.40
2022-10-17T22:29:23.709Z,71.10
2022-10-17T22:31:26.942Z,71.33
2022-10-17T22:33:29.622Z,71.04
2022-10-17T22:35:32.183Z,71.21
2022-10-17T22:37:36.436Z,70.46
2022-10-17T22:39:39.597Z,70.78
2022-10-17T22:41:42.216Z,71.01
2022-10-17T22:43:44.863Z,71.37
2022-10-17T22:45:52.804Z,71.13
2022-10-17T22:47:55.448Z,70.73
2022-10-17T22:49:58.381Z,71.54
2022-10-17T22:52:00.998Z,71.53
2022-10-17T22:54:05.103Z,70.94
2022-10-17T22:56:10.385Z,71.04
2022-10-17T22:58:13.004Z,70.64
2022-10-17T23:00:17.055Z,70.87
2022-10-17T23:02:19.786Z,70.87
2022-10-17T23:04:23.227Z,70.81
2022-10-17T23:06:25.830Z,71.18
2022-10-17T23:08:28.905Z,71.46
2022-10-17T23:10:32.847Z,71.53
2022-10-17T23:12:35.388Z,71.82
2022-10-17T23:14:38.450Z,71.92
2022-10-17T23:16:41.025Z,71.64
2022-10-17T23:18:44.088Z,71.65
2022-10-17T23:20:46.814Z,71.82
2022-10-17T23:22:49.749Z,71.99
2022-10-17T23:24:52.569Z,71.94
2022-10-17T23:26:56.739Z,71.76
2022-10-17T23:28:59.326Z,72.06
2022-10-17T23:31:10.163Z,71.80
2022-10-17T23:33:13.700Z,72.01
2022-10-17T23:35:16.458Z,71.43
2022-10-17T23:37:19.457Z,69.96
2022-10-17T23:39:22.401Z,70.43
2022-10-17T23:41:24.990Z,71.05
2022-10-17T23:43:29.849Z,72.18
2022-10-17T23:45:36.039Z,72.05
2022-10-17T23:47:39.795Z,70.68
2022-10-17T23:49:42.407Z,71.63
2022-10-17T23:51:45.082Z,71.94
2022-10-17T23:53:48.113Z,72.24
2022-10-17T23:55:51.153Z,71.99
2022-10-17T23:57:53.777Z,72.08
2022-10-17T23:59:57.727Z,72.25
